EDFH/HHN METAR and TAF weather

Enter ICAO airport designator
Station Type Date Time Source
EDFH METAR 2020/04/04 21:20 UTC NOAA

EDFH 042120Z 13007KT CAVOK 06/M02 Q1023


Station Type Date Time Source
EDFH Decoded METAR 2020/04/04 21:20 UTC NOAA

Hahn, Germany (EDFH) 49-57N 007-16E 498M
Apr 04, 2020 - 05:20 PM EDT / 2020.04.04 2120 UTC
Wind: from the SE (130 degrees) at 8 MPH (7 KT):0
Visibility: greater than 7 mile(s):0
Temperature: 42 F (6 C)
Dew Point: 28 F (-2 C)
Relative Humidity: 56%
Pressure (altimeter): 30.21 in. Hg (1023 hPa)
ob: EDFH 042120Z 13007KT CAVOK 06/M02 Q1023
cycle: 21

Station Type Date Time Source
EDFH TAF 2020/04/04 18:27 UTC NOAA

TAF EDFH 041700Z 0418/0518 11008KT CAVOK
BECMG 0505/0508 14013KT
TEMPO 0506/0514 14015G25KT

Example: see airport list